South River, New Jersey
Current Conditions -  °F | °C
As of 1:55 PM on Thursday 30 Oct 2014 (Local Time) from KLDJ Reporting Station
Scattered Clouds Scattered Clouds  
Wind Chill: 62°   Ceiling: Unl
Heat Index: 62°   Visibility: 10mi
Dew Point: 40°   Wind: 7mph
Humidity: 44%   Direction: 360°N
Pressure: 30"   Gusts: NA
Location:  40.45°N, 74.38°W
Report Text: KLDJ 301755Z AUTO 36006KT 340V040 10SM SCT043 17/05 A3000 RMK AO2 T01690046 10170 20087
Loading
Personal Weather Stations






























Interactive Weather Map New forecast layout! Learn more

10-Day Weather Forecast

Advertisements
Track Severe Weather on mobile